METAR Data

Data at: 1834 UTC 21 Nov 2018

METAR for:KBGR (Bangor Intl Arpt, ME, US)
Text:KBGR 211753Z 20008KT 10SM FEW030 SCT065 OVC100 M01/M06 A2977 RMK AO2 SLP085 BINOVC 4/007 T10111061 11011 21056 57035
Temperature: -1.1°C ( 30°F)
Dewpoint: -6.1°C ( 21°F) [RH = 69%]
Pressure (altimeter):29.77 inches Hg (1008.2 mb) [Sea level pressure: 1008.5 mb]
Winds:from the SSW (200 degrees) at 9 MPH (8 knots; 4.1 m/s)
Visibility:10 or more sm (16+ km)
Ceiling:10000 feet AGL
Clouds: few clouds at 3000 feet AGL, scattered clouds at 6500 feet AGL, overcast cloud deck at 10000 feet AGL